createdAt,value
2022-07-27T00:01:50.912Z,18.33
2022-07-27T00:04:37.620Z,17.25
2022-07-27T00:07:40.641Z,17.67
2022-07-27T00:10:19.457Z,18.03
2022-07-27T00:36:52.186Z,17.78
2022-07-27T00:47:55.980Z,17.12
2022-07-27T00:51:09.749Z,18.16
2022-07-27T00:54:17.002Z,18.71
2022-07-27T00:57:10.099Z,17.05
2022-07-27T01:00:52.280Z,17.66
2022-07-27T01:03:37.055Z,17.62
2022-07-27T01:06:26.992Z,18.50
2022-07-27T01:09:42.130Z,17.85
2022-07-27T01:12:47.537Z,17.63
2022-07-27T01:15:35.273Z,17.47
2022-07-27T01:22:20.065Z,18.34
2022-07-27T01:25:36.221Z,16.61
2022-07-27T01:31:52.471Z,17.58
2022-07-27T01:34:56.821Z,16.44
2022-07-27T01:43:33.942Z,17.61
2022-07-27T01:49:22.008Z,16.29
2022-07-27T01:52:00.505Z,17.20
2022-07-27T01:54:49.830Z,17.61
2022-07-27T02:03:19.389Z,18.00
2022-07-27T02:08:37.183Z,16.91
2022-07-27T02:11:28.324Z,17.92
2022-07-27T02:14:05.106Z,17.90
2022-07-27T02:16:34.592Z,17.81
2022-07-27T02:19:34.039Z,17.15
2022-07-27T02:47:40.288Z,15.57
2022-07-27T02:56:06.311Z,17.02
2022-07-27T03:08:19.326Z,15.98
2022-07-27T03:11:26.118Z,16.19
2022-07-27T03:14:21.498Z,15.80
2022-07-27T03:25:30.078Z,16.36
2022-07-27T03:28:03.536Z,16.57
2022-07-27T03:30:32.714Z,16.52
2022-07-27T03:33:01.039Z,16.54
2022-07-27T03:35:29.079Z,16.34
2022-07-27T03:37:57.328Z,16.25
2022-07-27T03:40:26.169Z,16.44
2022-07-27T03:42:55.565Z,16.02
2022-07-27T03:45:23.806Z,16.40
2022-07-27T03:47:51.996Z,16.37
2022-07-27T03:50:20.746Z,16.23
2022-07-27T03:52:48.818Z,16.28
2022-07-27T03:55:17.061Z,15.97
2022-07-27T03:57:45.249Z,16.22
2022-07-27T04:00:16.087Z,16.19
2022-07-27T04:02:44.188Z,16.19
2022-07-27T04:05:12.627Z,16.16
2022-07-27T04:07:41.664Z,16.17
2022-07-27T04:10:11.047Z,16.14
2022-07-27T04:12:39.889Z,16.01
2022-07-27T04:15:10.321Z,16.07
2022-07-27T04:17:55.448Z,16.04
2022-07-27T04:20:25.028Z,16.02
2022-07-27T04:22:53.212Z,16.00
2022-07-27T04:25:22.158Z,16.00
2022-07-27T04:27:51.021Z,16.00
2022-07-27T04:30:19.220Z,16.00
2022-07-27T04:32:48.650Z,16.01
2022-07-27T04:35:16.920Z,15.85
2022-07-27T04:37:59.010Z,16.05
2022-07-27T04:40:31.114Z,15.99
2022-07-27T04:42:59.304Z,16.17
2022-07-27T04:45:27.687Z,16.22
2022-07-27T04:47:57.305Z,15.79
2022-07-27T04:50:25.615Z,16.21
2022-07-27T04:52:53.638Z,16.25
2022-07-27T04:55:21.655Z,16.55
2022-07-27T04:57:49.879Z,16.70
2022-07-27T05:00:18.794Z,16.76
2022-07-27T05:02:46.872Z,16.80
2022-07-27T05:05:16.246Z,16.83
2022-07-27T05:07:44.258Z,16.88
2022-07-27T05:10:16.581Z,17.11
2022-07-27T05:12:47.823Z,17.58
2022-07-27T05:15:16.397Z,17.72
2022-07-27T05:17:44.489Z,17.85
2022-07-27T05:20:13.800Z,18.11
2022-07-27T05:22:43.228Z,18.17
2022-07-27T05:25:12.027Z,18.54
2022-07-27T05:27:51.032Z,18.92
2022-07-27T05:30:27.704Z,19.53
2022-07-27T05:33:07.476Z,20.79
2022-07-27T05:35:35.858Z,22.08
2022-07-27T05:40:48.905Z,24.06
2022-07-27T05:43:17.302Z,24.79
2022-07-27T05:45:45.448Z,25.47
2022-07-27T05:48:13.838Z,26.07
2022-07-27T05:50:41.804Z,26.64
2022-07-27T05:53:11.126Z,27.08
2022-07-27T05:55:58.296Z,26.84
2022-07-27T05:58:28.373Z,27.46
2022-07-27T06:00:59.856Z,28.09
2022-07-27T06:03:28.645Z,27.94
2022-07-27T06:06:17.897Z,29.30
2022-07-27T06:08:52.019Z,30.27
2022-07-27T06:25:38.917Z,33.45
2022-07-27T06:28:57.484Z,32.42
2022-07-27T07:02:24.716Z,38.73
2022-07-27T07:04:54.159Z,38.98
2022-07-27T07:07:22.101Z,39.31
2022-07-27T07:09:49.989Z,39.65
2022-07-27T07:12:18.331Z,40.00
2022-07-27T07:14:46.340Z,40.34
2022-07-27T07:17:14.404Z,40.01
2022-07-27T07:19:42.198Z,40.89
2022-07-27T07:22:11.441Z,41.28
2022-07-27T07:24:39.249Z,41.67
2022-07-27T07:27:07.091Z,42.02
2022-07-27T07:29:34.993Z,42.43
2022-07-27T07:32:02.765Z,42.52
2022-07-27T07:34:30.609Z,42.36
2022-07-27T07:36:58.414Z,42.86
2022-07-27T07:39:31.323Z,43.12
2022-07-27T07:41:59.500Z,43.51
2022-07-27T07:44:27.384Z,43.59
2022-07-27T07:46:55.267Z,43.53
2022-07-27T07:49:33.340Z,44.01
2022-07-27T07:52:08.172Z,44.27
2022-07-27T07:54:37.293Z,44.49
2022-07-27T07:57:05.256Z,44.78
2022-07-27T07:59:33.114Z,43.78
2022-07-27T08:02:03.219Z,43.17
2022-07-27T08:04:31.195Z,43.61
2022-07-27T08:06:59.128Z,44.03
2022-07-27T08:09:28.387Z,44.60
2022-07-27T08:11:57.783Z,44.34
2022-07-27T08:14:26.417Z,44.77
2022-07-27T08:16:54.182Z,45.35
2022-07-27T08:19:21.990Z,45.72
2022-07-27T08:21:49.804Z,45.59
2022-07-27T08:24:17.759Z,45.33
2022-07-27T08:26:45.546Z,45.84
2022-07-27T08:29:15.205Z,45.43
2022-07-27T08:31:52.492Z,42.30
2022-07-27T08:34:21.389Z,38.67
2022-07-27T08:36:49.422Z,36.07
2022-07-27T08:42:38.555Z,35.81
2022-07-27T08:45:09.728Z,37.67
2022-07-27T08:47:45.601Z,38.71
2022-07-27T08:50:24.308Z,39.84
2022-07-27T08:52:56.847Z,41.17
2022-07-27T08:55:25.357Z,42.04
2022-07-27T08:57:54.956Z,42.51
2022-07-27T09:00:28.246Z,43.22
2022-07-27T09:02:57.244Z,44.33
2022-07-27T09:05:25.209Z,45.43
2022-07-27T09:08:10.857Z,45.50
2022-07-27T09:10:39.286Z,42.11
2022-07-27T09:13:22.065Z,38.80
2022-07-27T09:18:41.632Z,34.42
2022-07-27T09:21:15.797Z,34.15
2022-07-27T09:23:48.365Z,35.99
2022-07-27T09:34:32.230Z,37.95
2022-07-27T09:37:11.136Z,35.87
2022-07-27T09:39:39.078Z,33.94
2022-07-27T09:42:08.306Z,34.06
2022-07-27T09:44:43.035Z,34.63
2022-07-27T09:47:26.403Z,34.07
2022-07-27T09:49:57.251Z,35.18
2022-07-27T09:52:34.902Z,36.15
2022-07-27T09:55:05.254Z,36.27
2022-07-27T09:57:52.328Z,35.32
2022-07-27T10:00:22.020Z,32.94
2022-07-27T10:02:51.393Z,31.98
2022-07-27T10:05:23.795Z,30.19
2022-07-27T10:08:58.077Z,29.12
2022-07-27T10:11:28.632Z,30.70
2022-07-27T10:13:59.329Z,31.05
2022-07-27T10:16:31.652Z,30.37
2022-07-27T10:19:08.563Z,29.74
2022-07-27T10:21:38.736Z,29.17
2022-07-27T10:24:10.437Z,28.97
2022-07-27T10:26:58.627Z,29.50
2022-07-27T10:29:27.184Z,30.76
2022-07-27T10:32:00.922Z,30.46
2022-07-27T10:34:37.602Z,30.75
2022-07-27T10:37:10.456Z,31.70
2022-07-27T10:39:43.002Z,32.47
2022-07-27T10:42:29.201Z,32.13
2022-07-27T10:45:03.445Z,31.35
2022-07-27T10:47:40.392Z,30.66
2022-07-27T10:50:30.846Z,29.88
2022-07-27T10:53:02.255Z,30.09
2022-07-27T10:55:58.525Z,30.08
2022-07-27T10:58:46.539Z,29.66
2022-07-27T11:01:16.236Z,29.44
2022-07-27T11:03:52.360Z,29.43
2022-07-27T11:53:59.679Z,28.32
2022-07-27T11:57:24.286Z,28.06
2022-07-27T11:59:53.858Z,27.67
2022-07-27T12:02:22.636Z,27.56
2022-07-27T12:04:53.229Z,27.57
2022-07-27T12:07:24.040Z,27.38
2022-07-27T12:09:55.667Z,27.31
2022-07-27T12:12:25.979Z,27.40
2022-07-27T12:14:57.534Z,27.41
2022-07-27T12:17:30.858Z,27.06
2022-07-27T12:20:01.835Z,26.69
2022-07-27T12:22:32.924Z,26.49
2022-07-27T12:25:11.296Z,26.65
2022-07-27T12:27:55.188Z,26.41
2022-07-27T12:30:32.199Z,26.33
2022-07-27T12:33:00.953Z,26.21
2022-07-27T12:35:37.059Z,25.88
2022-07-27T12:38:08.920Z,26.11
2022-07-27T12:40:45.834Z,25.75
2022-07-27T12:43:18.147Z,25.64
2022-07-27T12:45:49.134Z,25.65
2022-07-27T12:48:19.452Z,24.98
2022-07-27T12:50:49.498Z,25.76
2022-07-27T12:53:18.405Z,25.50
2022-07-27T12:55:46.609Z,26.50
2022-07-27T12:58:15.315Z,25.87
2022-07-27T13:00:44.111Z,25.37
2022-07-27T13:03:13.595Z,26.29
2022-07-27T13:05:42.431Z,25.51
2022-07-27T13:08:10.927Z,25.31
2022-07-27T13:10:39.585Z,25.35
2022-07-27T13:13:09.093Z,24.67
2022-07-27T13:15:37.421Z,24.17
2022-07-27T13:18:05.531Z,24.89
2022-07-27T13:20:35.145Z,24.17
2022-07-27T13:23:03.154Z,24.76
2022-07-27T13:25:31.299Z,24.79
2022-07-27T13:27:59.426Z,24.17
2022-07-27T13:30:27.468Z,24.48
2022-07-27T13:32:55.533Z,24.48
2022-07-27T13:35:23.626Z,25.25
2022-07-27T13:37:53.546Z,24.72
2022-07-27T13:40:21.924Z,24.55
2022-07-27T13:42:50.064Z,25.40
2022-07-27T13:45:18.207Z,25.25
2022-07-27T13:47:46.454Z,25.11
2022-07-27T13:50:19.255Z,25.05
2022-07-27T13:52:48.527Z,25.18
2022-07-27T13:55:19.095Z,24.57
2022-07-27T13:57:48.100Z,24.51
2022-07-27T14:00:17.692Z,24.59
2022-07-27T14:02:46.344Z,25.02
2022-07-27T14:05:15.823Z,24.86
2022-07-27T14:07:44.863Z,24.16
2022-07-27T14:10:31.418Z,24.27
2022-07-27T14:13:07.713Z,25.10
2022-07-27T14:15:53.149Z,25.08
2022-07-27T14:18:27.472Z,25.12
2022-07-27T14:20:56.142Z,24.51
2022-07-27T14:23:26.164Z,24.62
2022-07-27T14:25:55.397Z,25.28
2022-07-27T14:28:50.348Z,25.04
2022-07-27T14:32:04.707Z,24.78
2022-07-27T14:36:08.585Z,24.61
2022-07-27T14:38:40.886Z,24.51
2022-07-27T14:46:02.569Z,24.24
2022-07-27T14:51:19.426Z,24.19
2022-07-27T14:53:47.713Z,23.17
2022-07-27T14:56:16.056Z,23.87
2022-07-27T14:58:44.784Z,23.49
2022-07-27T15:01:16.901Z,23.79
2022-07-27T15:03:46.250Z,22.95
2022-07-27T15:06:14.298Z,23.92
2022-07-27T15:08:42.377Z,24.04
2022-07-27T15:11:11.336Z,24.19
2022-07-27T15:13:40.640Z,24.31
2022-07-27T15:16:09.403Z,23.82
2022-07-27T15:18:39.919Z,23.93
2022-07-27T15:21:12.974Z,23.89
2022-07-27T15:23:48.956Z,23.71
2022-07-27T15:26:17.984Z,23.11
2022-07-27T15:28:45.979Z,23.71
2022-07-27T15:31:14.632Z,23.22
2022-07-27T15:33:45.365Z,23.43
2022-07-27T15:36:32.035Z,23.55
2022-07-27T15:39:02.607Z,23.48
2022-07-27T15:41:37.180Z,23.89
2022-07-27T15:44:05.976Z,24.01
2022-07-27T15:46:34.817Z,24.11
2022-07-27T15:49:04.840Z,23.58
2022-07-27T15:51:33.158Z,24.23
2022-07-27T15:54:01.223Z,24.35
2022-07-27T15:56:29.430Z,24.14
2022-07-27T15:58:57.542Z,24.49
2022-07-27T16:01:35.306Z,24.46
2022-07-27T16:04:06.310Z,24.16
2022-07-27T16:06:39.145Z,23.79
2022-07-27T16:12:12.219Z,22.65
2022-07-27T16:14:45.362Z,22.09
2022-07-27T16:23:55.394Z,22.62
2022-07-27T16:26:23.771Z,22.75
2022-07-27T16:28:52.967Z,22.75
2022-07-27T16:31:21.044Z,22.62
2022-07-27T16:33:54.984Z,22.45
2022-07-27T16:36:24.367Z,22.31
2022-07-27T16:38:53.361Z,22.16
2022-07-27T16:41:22.315Z,22.25
2022-07-27T16:43:50.851Z,22.08
2022-07-27T16:46:19.097Z,22.10
2022-07-27T16:48:47.848Z,21.93
2022-07-27T16:51:16.541Z,22.02
2022-07-27T16:53:47.892Z,21.86
2022-07-27T16:56:15.760Z,21.94
2022-07-27T16:58:44.381Z,21.72
2022-07-27T17:01:22.352Z,21.86
2022-07-27T17:03:58.550Z,21.95
2022-07-27T17:06:27.075Z,21.96
2022-07-27T17:08:56.594Z,21.97
2022-07-27T17:11:24.971Z,21.90
2022-07-27T17:13:58.890Z,21.87
2022-07-27T17:16:28.038Z,21.89
2022-07-27T17:18:56.532Z,21.87
2022-07-27T17:21:24.643Z,21.93
2022-07-27T17:24:21.538Z,21.68
2022-07-27T17:34:56.237Z,21.73
2022-07-27T17:37:24.007Z,21.67
2022-07-27T17:39:51.739Z,21.66
2022-07-27T17:42:19.510Z,21.64
2022-07-27T17:44:47.300Z,21.48
2022-07-27T17:47:15.230Z,21.57
2022-07-27T17:49:43.705Z,21.54
2022-07-27T17:52:12.954Z,21.50
2022-07-27T17:58:34.260Z,21.32
2022-07-27T18:01:02.749Z,21.10
2022-07-27T18:03:30.495Z,21.00
2022-07-27T18:05:58.651Z,20.96
2022-07-27T18:08:28.183Z,20.95
2022-07-27T18:10:56.144Z,20.68
2022-07-27T18:13:23.944Z,20.81
2022-07-27T18:16:08.146Z,20.67
2022-07-27T18:18:37.027Z,20.63
2022-07-27T18:21:05.750Z,20.52
2022-07-27T18:23:35.357Z,20.41
2022-07-27T18:26:03.275Z,20.29
2022-07-27T18:28:37.287Z,20.19
2022-07-27T18:31:07.616Z,20.09
2022-07-27T18:37:01.968Z,19.87
2022-07-27T18:39:32.222Z,19.77
2022-07-27T18:42:03.587Z,19.64
2022-07-27T18:44:38.444Z,19.32
2022-07-27T18:47:06.883Z,19.44
2022-07-27T18:49:34.694Z,19.33
2022-07-27T18:52:02.516Z,19.25
2022-07-27T18:54:31.614Z,19.16
2022-07-27T18:56:59.872Z,18.53
2022-07-27T18:59:27.640Z,18.99
2022-07-27T19:01:55.547Z,18.91
2022-07-27T19:04:24.789Z,18.81
2022-07-27T19:06:52.755Z,18.72
2022-07-27T19:09:21.400Z,18.62
2022-07-27T19:11:50.480Z,18.54
2022-07-27T19:14:22.747Z,18.39
2022-07-27T19:16:51.157Z,18.32
2022-07-27T19:19:23.038Z,17.91
2022-07-27T19:21:51.356Z,18.13
2022-07-27T19:24:19.593Z,18.02
2022-07-27T19:26:47.360Z,17.94
2022-07-27T19:29:17.950Z,17.84
2022-07-27T19:31:45.701Z,17.74
2022-07-27T19:34:13.715Z,17.28
2022-07-27T19:36:41.932Z,17.52
2022-07-27T19:39:10.233Z,17.40
2022-07-27T19:41:40.074Z,17.34
2022-07-27T19:44:08.557Z,17.35
2022-07-27T19:46:38.529Z,17.20
2022-07-27T19:49:06.343Z,16.89
2022-07-27T19:51:34.139Z,17.09
2022-07-27T19:54:01.921Z,16.84
2022-07-27T19:56:32.782Z,16.91
2022-07-27T19:59:04.931Z,16.81
2022-07-27T20:01:32.731Z,16.72
2022-07-27T20:04:05.227Z,16.63
2022-07-27T20:06:34.600Z,16.53
2022-07-27T20:09:02.339Z,16.44
2022-07-27T20:11:31.013Z,16.39
2022-07-27T20:13:59.239Z,15.95
2022-07-27T20:16:29.663Z,16.08
2022-07-27T20:18:57.525Z,16.18
2022-07-27T20:21:27.056Z,16.13
2022-07-27T20:23:57.317Z,16.05
2022-07-27T20:26:25.209Z,16.00
2022-07-27T20:28:53.207Z,15.92
2022-07-27T20:31:21.273Z,15.84
2022-07-27T20:33:49.190Z,15.77
2022-07-27T20:36:16.963Z,15.69
2022-07-27T20:38:46.038Z,15.62
2022-07-27T20:41:13.892Z,15.53
2022-07-27T20:43:41.740Z,15.44
2022-07-27T20:46:09.606Z,15.26
2022-07-27T20:48:38.366Z,15.31
2022-07-27T20:51:06.147Z,15.24
2022-07-27T20:53:33.974Z,15.15
2022-07-27T20:56:03.076Z,15.08
2022-07-27T20:58:31.530Z,15.01
2022-07-27T21:00:59.667Z,14.94
2022-07-27T21:03:27.936Z,14.86
2022-07-27T21:05:55.791Z,14.78
2022-07-27T21:08:23.556Z,14.72
2022-07-27T21:10:51.318Z,14.47
2022-07-27T21:13:20.610Z,14.45
2022-07-27T21:15:48.424Z,14.51
2022-07-27T21:18:16.252Z,14.44
2022-07-27T21:20:44.005Z,14.37
2022-07-27T21:23:38.026Z,14.30
2022-07-27T21:26:05.976Z,14.21
2022-07-27T21:28:36.338Z,14.15
2022-07-27T21:31:04.615Z,14.08
2022-07-27T21:33:37.577Z,13.97
2022-07-27T21:36:07.738Z,13.98
2022-07-27T21:38:35.549Z,13.74
2022-07-27T21:41:03.303Z,13.85
2022-07-27T21:43:33.052Z,13.71
2022-07-27T21:46:02.214Z,13.75
2022-07-27T21:48:30.003Z,13.69
2022-07-27T21:50:59.332Z,13.59
2022-07-27T21:53:27.112Z,13.60
2022-07-27T21:55:54.855Z,13.56
2022-07-27T21:58:29.343Z,13.02
2022-07-27T22:01:10.851Z,13.47
2022-07-27T22:04:00.471Z,13.42
2022-07-27T22:06:32.879Z,12.69
2022-07-27T22:09:01.282Z,12.57
2022-07-27T22:11:30.797Z,13.28
2022-07-27T22:14:02.932Z,13.24
2022-07-27T22:16:39.615Z,13.19
2022-07-27T22:19:07.949Z,13.15
2022-07-27T22:21:37.725Z,13.10
2022-07-27T22:24:15.954Z,12.94
2022-07-27T22:26:46.964Z,12.66
2022-07-27T22:29:14.772Z,12.94
2022-07-27T22:31:50.229Z,12.76
2022-07-27T22:34:24.226Z,12.72
2022-07-27T22:36:58.505Z,12.34
2022-07-27T22:39:26.460Z,12.68
2022-07-27T22:41:54.268Z,12.34
2022-07-27T22:44:22.453Z,12.66
2022-07-27T22:46:51.654Z,12.26
2022-07-27T22:49:19.568Z,12.59
2022-07-27T22:51:49.504Z,12.55
2022-07-27T22:54:20.777Z,12.50
2022-07-27T22:56:48.675Z,12.47
2022-07-27T22:59:16.505Z,11.75
2022-07-27T23:01:47.339Z,12.41
2022-07-27T23:04:28.389Z,12.38
2022-07-27T23:06:57.761Z,12.20
2022-07-27T23:09:27.593Z,12.16
2022-07-27T23:12:01.491Z,12.27
2022-07-27T23:14:30.575Z,12.22
2022-07-27T23:17:02.898Z,12.25
2022-07-27T23:19:32.248Z,12.23
2022-07-27T23:22:01.714Z,12.21
2022-07-27T23:24:29.814Z,12.14
2022-07-27T23:26:58.110Z,12.14
2022-07-27T23:29:26.292Z,12.14
2022-07-27T23:31:54.482Z,12.00
2022-07-27T23:34:25.393Z,12.14
2022-07-27T23:36:55.243Z,12.12
2022-07-27T23:39:24.442Z,12.12
2022-07-27T23:41:52.539Z,11.75
2022-07-27T23:44:20.382Z,10.46
2022-07-27T23:46:48.518Z,12.02
2022-07-27T23:49:16.625Z,12.05
2022-07-27T23:51:45.642Z,12.04
2022-07-27T23:54:16.285Z,11.92
2022-07-27T23:56:44.263Z,11.98
2022-07-27T23:59:12.643Z,11.99
